createdAt,value
2019-04-05T00:00:48.133Z,12.68
2019-04-05T00:01:52.526Z,12.33
2019-04-05T00:02:56.734Z,11.43
2019-04-05T00:04:02.526Z,12.40
2019-04-05T00:05:09.214Z,12.65
2019-04-05T00:06:13.606Z,11.22
2019-04-05T00:07:17.883Z,12.00
2019-04-05T00:08:24.788Z,13.35
2019-04-05T00:09:29.145Z,11.75
2019-04-05T00:10:33.303Z,11.57
2019-04-05T00:11:37.628Z,12.18
2019-04-05T00:12:41.795Z,11.53
2019-04-05T00:13:46.172Z,11.12
2019-04-05T00:14:53.460Z,11.75
2019-04-05T00:15:57.812Z,11.95
2019-04-05T00:17:01.975Z,14.47
2019-04-05T00:18:08.906Z,15.78
2019-04-05T00:19:13.243Z,13.62
2019-04-05T00:20:19.149Z,13.10
2019-04-05T00:21:29.291Z,13.72
2019-04-05T00:22:33.532Z,16.52
2019-04-05T00:23:37.782Z,14.70
2019-04-05T00:24:42.002Z,15.75
2019-04-05T00:25:46.172Z,16.40
2019-04-05T00:26:50.503Z,17.67
2019-04-05T00:27:54.747Z,14.85
2019-04-05T00:28:59.082Z,16.37
2019-04-05T00:30:09.193Z,18.70
2019-04-05T00:31:13.361Z,16.80
2019-04-05T00:32:20.326Z,16.30
2019-04-05T00:33:24.502Z,15.63
2019-04-05T00:34:28.712Z,17.77
2019-04-05T00:35:37.669Z,19.80
2019-04-05T00:36:41.870Z,20.15
2019-04-05T00:37:47.739Z,19.45
2019-04-05T00:38:53.249Z,18.02
2019-04-05T00:39:57.427Z,19.45
2019-04-05T00:41:01.707Z,22.50
2019-04-05T00:42:05.950Z,20.90
2019-04-05T00:43:10.199Z,19.87
2019-04-05T00:44:15.470Z,22.87
2019-04-05T00:45:28.127Z,19.23
2019-04-05T00:46:26.229Z,24.47
2019-04-05T00:47:32.485Z,21.23
2019-04-05T00:48:36.729Z,20.37
2019-04-05T00:49:40.909Z,21.77
2019-04-05T00:50:45.090Z,25.10
2019-04-05T00:51:49.294Z,22.22
2019-04-05T00:52:53.515Z,21.57
2019-04-05T00:53:57.645Z,20.72
2019-04-05T00:55:01.890Z,23.95
2019-04-05T00:56:06.117Z,21.75
2019-04-05T00:57:10.278Z,21.00
2019-04-05T00:58:14.455Z,22.97
2019-04-05T00:59:18.632Z,22.67
2019-04-05T01:00:23.067Z,22.33
2019-04-05T01:01:27.246Z,25.30
2019-04-05T01:02:31.617Z,23.40
2019-04-05T01:03:35.786Z,23.42
2019-04-05T01:04:39.983Z,23.18
2019-04-05T01:05:44.143Z,23.52
2019-04-05T01:06:48.325Z,23.67
2019-04-05T01:07:52.786Z,24.55
2019-04-05T01:08:56.961Z,23.45
2019-04-05T01:10:01.133Z,22.85
2019-04-05T01:11:06.467Z,21.33
2019-04-05T01:12:10.711Z,22.97
2019-04-05T01:13:14.999Z,22.97
2019-04-05T01:14:19.171Z,22.00
2019-04-05T01:15:23.352Z,23.43
2019-04-05T01:16:27.526Z,21.85
2019-04-05T01:17:31.703Z,24.82
2019-04-05T01:18:35.990Z,22.67
2019-04-05T01:19:42.564Z,21.12
2019-04-05T01:20:48.790Z,24.00
2019-04-05T01:22:01.568Z,24.70
2019-04-05T01:23:07.483Z,23.15
2019-04-05T01:24:11.686Z,23.33
2019-04-05T01:25:15.931Z,22.70
2019-04-05T01:26:20.493Z,19.97
2019-04-05T01:27:24.677Z,24.82
2019-04-05T01:28:30.021Z,22.45
2019-04-05T01:29:35.106Z,24.37
2019-04-05T01:30:40.939Z,23.27
2019-04-05T01:31:46.794Z,21.68
2019-04-05T01:32:51.187Z,21.65
2019-04-05T01:33:55.362Z,25.30
2019-04-05T01:34:59.961Z,20.75
2019-04-05T01:36:04.657Z,23.27
2019-04-05T01:37:08.971Z,23.70
2019-04-05T01:38:16.393Z,22.93
2019-04-05T01:39:24.082Z,21.67
2019-04-05T01:40:27.292Z,24.52
2019-04-05T01:41:31.538Z,22.22
2019-04-05T01:42:36.341Z,23.57
2019-04-05T01:43:40.550Z,24.55
2019-04-05T01:44:44.796Z,23.50
2019-04-05T01:45:54.067Z,23.40
2019-04-05T01:46:54.903Z,24.45
2019-04-05T01:47:59.143Z,19.70
2019-04-05T01:49:03.372Z,22.93
2019-04-05T01:50:07.607Z,19.17
2019-04-05T01:51:11.789Z,22.27
2019-04-05T01:52:16.087Z,22.20
2019-04-05T01:53:23.457Z,22.30
2019-04-05T01:54:29.191Z,21.48
2019-04-05T01:55:33.486Z,23.47
2019-04-05T01:56:37.910Z,25.82
2019-04-05T01:57:42.132Z,23.85
2019-04-05T01:58:46.304Z,25.30
2019-04-05T01:59:50.573Z,22.75
2019-04-05T02:00:54.814Z,21.42
2019-04-05T02:01:59.024Z,21.70
2019-04-05T02:03:04.669Z,23.95
2019-04-05T02:04:08.815Z,22.70
2019-04-05T02:05:14.757Z,24.30
2019-04-05T02:06:18.971Z,23.77
2019-04-05T02:07:23.218Z,22.77
2019-04-05T02:08:27.439Z,22.73
2019-04-05T02:09:31.778Z,21.57
2019-04-05T02:10:35.954Z,21.35
2019-04-05T02:11:42.934Z,22.87
2019-04-05T02:12:49.857Z,19.30
2019-04-05T02:13:54.217Z,22.35
2019-04-05T02:14:58.459Z,22.50
2019-04-05T02:16:06.572Z,22.95
2019-04-05T02:17:08.514Z,22.73
2019-04-05T02:18:13.411Z,25.80
2019-04-05T02:19:17.640Z,23.90
2019-04-05T02:20:23.056Z,21.70
2019-04-05T02:21:27.157Z,26.95
2019-04-05T02:22:31.329Z,22.07
2019-04-05T02:23:35.666Z,22.67
2019-04-05T02:24:41.511Z,23.42
2019-04-05T02:25:47.378Z,22.58
2019-04-05T02:26:54.079Z,26.12
2019-04-05T02:27:58.338Z,23.83
2019-04-05T02:29:02.547Z,26.60
2019-04-05T02:30:08.470Z,24.47
2019-04-05T02:31:12.721Z,24.60
2019-04-05T02:32:16.906Z,22.80
2019-04-05T02:33:21.070Z,24.55
2019-04-05T02:34:25.715Z,24.95
2019-04-05T02:35:30.496Z,23.50
2019-04-05T02:36:35.084Z,24.40
2019-04-05T02:37:39.270Z,22.62
2019-04-05T02:38:43.507Z,26.00
2019-04-05T02:39:51.330Z,23.65
2019-04-05T02:40:58.684Z,24.77
2019-04-05T02:42:03.928Z,23.02
2019-04-05T02:43:09.244Z,24.23
2019-04-05T02:44:14.607Z,24.43
2019-04-05T02:45:18.836Z,27.33
2019-04-05T02:46:27.359Z,26.68
2019-04-05T02:47:31.478Z,27.42
2019-04-05T02:48:36.260Z,26.62
2019-04-05T02:49:40.477Z,23.90
2019-04-05T02:50:47.403Z,26.30
2019-04-05T02:51:51.917Z,23.20
2019-04-05T02:52:57.302Z,24.18
2019-04-05T02:54:01.780Z,25.25
2019-04-05T02:55:06.617Z,24.55
2019-04-05T02:56:13.274Z,26.23
2019-04-05T02:57:19.644Z,26.77
2019-04-05T02:58:23.943Z,25.00
2019-04-05T02:59:28.210Z,24.87
2019-04-05T03:00:33.194Z,24.98
2019-04-05T03:01:37.378Z,24.55
2019-04-05T03:02:42.128Z,26.85
2019-04-05T03:03:46.301Z,25.82
2019-04-05T03:04:50.545Z,26.73
2019-04-05T03:05:55.679Z,25.97
2019-04-05T03:06:59.896Z,26.97
2019-04-05T03:08:06.980Z,27.30
2019-04-05T03:09:11.530Z,26.33
2019-04-05T03:10:52.765Z,27.07
2019-04-05T03:12:03.368Z,27.32
2019-04-05T03:13:07.709Z,27.98
2019-04-05T03:14:11.914Z,25.70
2019-04-05T03:15:16.388Z,26.77
2019-04-05T03:16:39.450Z,28.17
2019-04-05T03:18:35.067Z,27.15
2019-04-05T03:19:40.541Z,28.98
2019-04-05T03:20:47.722Z,28.05
2019-04-05T03:21:53.648Z,28.17
2019-04-05T03:22:57.887Z,26.52
2019-04-05T03:24:03.949Z,26.57
2019-04-05T03:25:10.842Z,26.90
2019-04-05T03:26:17.546Z,29.37
2019-04-05T03:27:24.691Z,29.77
2019-04-05T03:28:29.165Z,26.25
2019-04-05T03:29:35.996Z,27.98
2019-04-05T03:30:42.342Z,25.80
2019-04-05T03:31:47.084Z,25.23
2019-04-05T03:32:51.355Z,24.50
2019-04-05T03:33:55.636Z,28.25
2019-04-05T03:34:59.867Z,25.68
2019-04-05T03:36:05.126Z,29.44
2019-04-05T03:37:09.960Z,25.67
2019-04-05T03:38:14.137Z,27.90
2019-04-05T03:39:19.789Z,28.03
2019-04-05T03:40:24.170Z,25.40
2019-04-05T03:41:28.351Z,31.35
2019-04-05T03:42:32.622Z,25.82
2019-04-05T03:43:37.054Z,25.48
2019-04-05T03:44:41.229Z,25.77
2019-04-05T03:45:45.478Z,29.18
2019-04-05T03:46:57.228Z,28.00
2019-04-05T03:47:56.269Z,24.82
2019-04-05T03:49:01.287Z,25.72
2019-04-05T03:50:11.248Z,25.32
2019-04-05T03:51:15.634Z,24.43
2019-04-05T03:52:21.030Z,24.00
2019-04-05T03:53:25.547Z,25.55
2019-04-05T03:54:31.967Z,25.37
2019-04-05T03:55:37.210Z,27.02
2019-04-05T03:56:41.427Z,25.20
2019-04-05T03:57:45.598Z,28.77
2019-04-05T03:58:49.847Z,26.73
2019-04-05T03:59:54.093Z,27.42
2019-04-05T04:00:58.272Z,29.75
2019-04-05T04:02:06.271Z,27.37
2019-04-05T04:03:10.420Z,25.07
2019-04-05T04:04:14.716Z,24.43
2019-04-05T04:05:24.685Z,27.13
2019-04-05T04:06:29.061Z,28.57
2019-04-05T04:07:33.274Z,24.30
2019-04-05T04:08:40.878Z,25.77
2019-04-05T04:09:45.980Z,26.60
2019-04-05T04:10:50.356Z,26.85
2019-04-05T04:11:55.006Z,26.73
2019-04-05T04:12:59.603Z,27.05
2019-04-05T04:14:08.311Z,27.58
2019-04-05T04:15:13.939Z,25.02
2019-04-05T04:16:19.595Z,27.57
2019-04-05T04:17:23.771Z,27.90
2019-04-05T04:18:28.023Z,26.30
2019-04-05T04:19:32.575Z,26.42
2019-04-05T04:20:45.161Z,26.45
2019-04-05T04:22:10.728Z,24.72
2019-04-05T04:23:14.919Z,25.03
2019-04-05T04:24:21.900Z,28.13
2019-04-05T04:25:26.423Z,26.25
2019-04-05T04:26:31.225Z,28.38
2019-04-05T04:27:38.492Z,27.20
2019-04-05T04:28:45.805Z,29.90
2019-04-05T04:29:52.931Z,28.02
2019-04-05T04:30:58.539Z,26.23
2019-04-05T04:32:02.721Z,27.07
2019-04-05T04:33:07.094Z,26.25
2019-04-05T04:34:14.536Z,24.97
2019-04-05T04:35:18.834Z,25.83
2019-04-05T04:36:23.099Z,27.33
2019-04-05T04:37:27.368Z,26.68
2019-04-05T04:38:31.546Z,27.13
2019-04-05T04:39:35.915Z,25.75
2019-04-05T04:40:40.120Z,31.87
2019-04-05T04:41:44.465Z,29.12
2019-04-05T04:42:49.163Z,26.45
2019-04-05T04:43:55.018Z,27.30
2019-04-05T04:45:11.234Z,32.00
2019-04-05T04:46:05.159Z,27.32
2019-04-05T04:47:09.335Z,28.57
2019-04-05T04:48:13.527Z,28.33
2019-04-05T04:49:17.692Z,28.40
2019-04-05T04:50:22.132Z,27.93
2019-04-05T04:51:26.307Z,26.57
2019-04-05T04:52:31.421Z,31.30
2019-04-05T04:53:35.925Z,28.95
2019-04-05T04:54:40.101Z,29.42
2019-04-05T04:55:44.310Z,31.05
2019-04-05T04:56:49.773Z,32.15
2019-04-05T04:57:53.965Z,30.88
2019-04-05T04:58:59.783Z,31.82
2019-04-05T05:00:05.110Z,27.20
2019-04-05T05:01:09.330Z,32.63
2019-04-05T05:02:13.510Z,34.23
2019-04-05T05:03:17.690Z,31.57
2019-04-05T05:04:22.007Z,29.85
2019-04-05T05:05:26.181Z,29.63
2019-04-05T05:06:31.137Z,31.23
2019-04-05T05:07:37.641Z,32.53
2019-04-05T05:08:41.741Z,32.53
2019-04-05T05:09:45.914Z,35.48
2019-04-05T05:10:50.095Z,30.45
2019-04-05T05:11:54.450Z,34.18
2019-04-05T05:12:58.744Z,33.45
2019-04-05T05:14:02.923Z,30.72
2019-04-05T05:15:07.305Z,34.08
2019-04-05T05:16:11.479Z,31.67
2019-04-05T05:17:15.722Z,32.67
2019-04-05T05:18:20.024Z,33.10
2019-04-05T05:19:24.275Z,31.77
2019-04-05T05:20:28.522Z,30.95
2019-04-05T05:21:32.726Z,31.62
2019-04-05T05:22:37.355Z,34.92
2019-04-05T05:23:41.531Z,33.25
2019-04-05T05:24:45.778Z,34.13
2019-04-05T05:25:50.020Z,33.83
2019-04-05T05:26:54.393Z,35.65
2019-04-05T05:27:58.674Z,32.35
2019-04-05T05:29:02.966Z,32.88
2019-04-05T05:30:09.619Z,32.63
2019-04-05T05:31:13.868Z,44.37
2019-04-05T05:32:18.061Z,49.73
2019-04-05T05:33:22.253Z,46.65
2019-04-05T05:34:26.454Z,40.88
2019-04-05T05:35:30.615Z,35.65
2019-04-05T05:36:34.957Z,36.53
2019-04-05T05:37:39.320Z,37.78
2019-04-05T05:38:43.611Z,35.92
2019-04-05T05:39:47.845Z,33.85
2019-04-05T05:40:52.027Z,33.83
2019-04-05T05:41:56.292Z,37.38
2019-04-05T05:43:00.544Z,33.45
2019-04-05T05:44:06.809Z,35.92
2019-04-05T05:45:12.324Z,34.67
2019-04-05T05:46:16.501Z,36.97
2019-04-05T05:47:20.956Z,36.40
2019-04-05T05:48:25.139Z,37.13
2019-04-05T05:49:30.991Z,37.85
2019-04-05T05:50:35.549Z,35.15
2019-04-05T05:51:40.072Z,37.25
2019-04-05T05:52:44.253Z,35.20
2019-04-05T05:53:48.495Z,40.28
2019-04-05T05:54:52.885Z,49.40
2019-04-05T05:55:57.095Z,68.70
2019-04-05T05:57:01.328Z,107.97
2019-04-05T05:58:05.564Z,88.05
2019-04-05T05:59:09.839Z,80.03
2019-04-05T06:00:14.815Z,76.00
2019-04-05T06:01:19.246Z,58.23
2019-04-05T06:02:23.422Z,52.23
2019-04-05T06:03:27.924Z,79.87
2019-04-05T06:04:32.098Z,70.70
2019-04-05T06:05:36.790Z,57.03
2019-04-05T06:06:40.968Z,42.55
2019-04-05T06:07:45.215Z,50.17
2019-04-05T06:08:49.517Z,52.75
2019-04-05T06:09:53.812Z,53.30
2019-04-05T06:10:58.153Z,52.75
2019-04-05T06:12:02.638Z,48.60
2019-04-05T06:13:07.763Z,38.53
2019-04-05T06:14:12.345Z,39.97
2019-04-05T06:15:16.556Z,49.70
2019-04-05T06:16:20.883Z,42.83
2019-04-05T06:17:25.254Z,37.50
2019-04-05T06:18:31.087Z,39.75
2019-04-05T06:19:35.354Z,37.67
2019-04-05T06:20:39.546Z,33.60
2019-04-05T06:21:44.790Z,38.48
2019-04-05T06:22:49.462Z,33.67
2019-04-05T06:23:55.663Z,51.55
2019-04-05T06:24:59.981Z,85.12
2019-04-05T06:26:04.646Z,86.76
2019-04-05T06:27:08.883Z,54.23
2019-04-05T06:28:13.097Z,53.37
2019-04-05T06:29:17.393Z,47.07
2019-04-05T06:30:21.707Z,47.67
2019-04-05T06:31:25.887Z,37.08
2019-04-05T06:32:30.131Z,33.80
2019-04-05T06:33:35.940Z,33.05
2019-04-05T06:34:40.179Z,32.25
2019-04-05T06:35:45.786Z,33.78
2019-04-05T06:36:51.316Z,29.90
2019-04-05T06:37:55.603Z,30.20
2019-04-05T06:38:59.917Z,34.25
2019-04-05T06:40:06.483Z,30.86
2019-04-05T06:41:10.720Z,32.97
2019-04-05T06:42:14.901Z,29.97
2019-04-05T06:43:19.289Z,29.97
2019-04-05T06:44:23.473Z,34.40
2019-04-05T06:45:27.810Z,25.25
2019-04-05T06:46:31.986Z,31.95
2019-04-05T06:47:36.347Z,31.42
2019-04-05T06:48:40.520Z,32.10
2019-04-05T06:49:44.695Z,28.60
2019-04-05T06:50:49.030Z,32.17
2019-04-05T06:51:54.184Z,34.80
2019-04-05T06:52:58.533Z,37.70
2019-04-05T06:54:03.436Z,31.45
2019-04-05T06:55:07.785Z,31.42
2019-04-05T06:56:12.156Z,32.93
2019-04-05T06:57:16.687Z,29.90
2019-04-05T06:58:29.068Z,28.87
2019-04-05T06:59:27.088Z,27.00
2019-04-05T07:00:31.381Z,30.75
2019-04-05T07:01:35.671Z,29.27
2019-04-05T07:02:39.890Z,30.52
2019-04-05T07:03:46.859Z,28.80
2019-04-05T07:04:51.362Z,28.25
2019-04-05T07:05:55.538Z,28.50
2019-04-05T07:06:59.787Z,29.18
2019-04-05T07:08:05.004Z,30.30
2019-04-05T07:09:09.379Z,27.73
2019-04-05T07:10:13.629Z,30.50
2019-04-05T07:11:17.934Z,26.77
2019-04-05T07:12:22.193Z,27.83
2019-04-05T07:13:27.536Z,29.12
2019-04-05T07:14:31.854Z,30.02
2019-04-05T07:15:36.249Z,28.60
2019-04-05T07:16:40.430Z,29.35
2019-04-05T07:17:44.674Z,26.00
2019-04-05T07:18:49.012Z,29.40
2019-04-05T07:19:53.872Z,28.90
2019-04-05T07:21:01.937Z,29.80
2019-04-05T07:22:06.312Z,30.62
2019-04-05T07:23:10.532Z,33.10
2019-04-05T07:24:15.773Z,29.70
2019-04-05T07:25:23.128Z,29.03
2019-04-05T07:26:27.654Z,31.73
2019-04-05T07:27:31.831Z,29.60
2019-04-05T07:28:36.133Z,28.12
2019-04-05T07:29:40.372Z,27.32
2019-04-05T07:30:44.552Z,29.27
2019-04-05T07:31:48.872Z,29.15
2019-04-05T07:32:53.120Z,28.50
2019-04-05T07:33:57.607Z,28.02
2019-04-05T07:35:01.783Z,26.82
2019-04-05T07:36:06.106Z,30.15
2019-04-05T07:37:10.283Z,30.73
2019-04-05T07:38:14.525Z,34.67
2019-04-05T07:39:18.899Z,29.03
2019-04-05T07:40:23.070Z,28.83
2019-04-05T07:41:27.617Z,31.60
2019-04-05T07:42:31.834Z,29.30
2019-04-05T07:43:36.082Z,26.90
2019-04-05T07:44:40.374Z,28.02
2019-04-05T07:45:46.012Z,30.40
2019-04-05T07:46:50.315Z,28.00
2019-04-05T07:47:54.487Z,30.20
2019-04-05T07:48:58.661Z,29.55
2019-04-05T07:50:03.247Z,30.95
2019-04-05T07:51:07.396Z,29.48
2019-04-05T07:52:13.175Z,29.70
2019-04-05T07:53:17.495Z,29.77
2019-04-05T07:54:21.733Z,36.50
2019-04-05T07:55:25.941Z,39.18
2019-04-05T07:56:30.186Z,36.25
2019-04-05T07:57:34.395Z,33.85
2019-04-05T07:58:38.565Z,33.35
2019-04-05T07:59:42.753Z,51.90
2019-04-05T08:00:49.366Z,61.08
2019-04-05T08:01:53.611Z,69.95
2019-04-05T08:02:57.791Z,62.17
2019-04-05T08:04:02.012Z,50.48
2019-04-05T08:05:07.655Z,40.10
2019-04-05T08:06:11.960Z,31.33
2019-04-05T08:07:16.139Z,30.53
2019-04-05T08:08:23.579Z,30.55
2019-04-05T08:09:27.861Z,25.97
2019-04-05T08:10:32.039Z,28.77
2019-04-05T08:11:36.292Z,28.02
2019-04-05T08:12:40.534Z,28.65
2019-04-05T08:13:44.794Z,27.45
2019-04-05T08:14:49.035Z,27.70
2019-04-05T08:15:53.210Z,26.80
2019-04-05T08:16:57.535Z,28.47
2019-04-05T08:18:01.712Z,29.40
2019-04-05T08:19:06.366Z,32.33
2019-04-05T08:20:10.869Z,29.48
2019-04-05T08:21:15.122Z,31.57
2019-04-05T08:22:19.294Z,28.27
2019-04-05T08:23:23.537Z,27.32
2019-04-05T08:24:27.790Z,30.20
2019-04-05T08:25:32.873Z,30.37
2019-04-05T08:26:37.047Z,30.23
2019-04-05T08:27:41.226Z,30.55
2019-04-05T08:28:45.471Z,30.43
2019-04-05T08:29:49.667Z,30.30
2019-04-05T08:30:53.870Z,28.42
2019-04-05T08:31:58.163Z,32.80
2019-04-05T08:33:02.348Z,27.85
2019-04-05T08:34:06.598Z,26.62
2019-04-05T08:35:10.778Z,26.12
2019-04-05T08:36:15.022Z,27.00
2019-04-05T08:37:19.293Z,23.93
2019-04-05T08:38:23.607Z,26.05
2019-04-05T08:39:27.959Z,25.65
2019-04-05T08:40:32.140Z,23.32
2019-04-05T08:41:36.554Z,23.55
2019-04-05T08:42:40.766Z,22.80
2019-04-05T08:43:47.158Z,22.65
2019-04-05T08:44:50.955Z,20.75
2019-04-05T08:45:55.133Z,20.92
2019-04-05T08:46:59.314Z,22.07
2019-04-05T08:48:03.697Z,19.32
2019-04-05T08:49:10.840Z,18.52
2019-04-05T08:50:13.814Z,21.63
2019-04-05T08:51:18.274Z,18.80
2019-04-05T08:52:22.449Z,18.87
2019-04-05T08:53:26.751Z,19.75
2019-04-05T08:54:33.076Z,18.65
2019-04-05T08:55:36.885Z,22.22
2019-04-05T08:56:41.267Z,19.35
2019-04-05T08:57:47.982Z,21.82
2019-04-05T08:58:51.489Z,19.73
2019-04-05T08:59:55.818Z,19.82
2019-04-05T09:00:59.996Z,21.80
2019-04-05T09:02:04.750Z,20.78
2019-04-05T09:03:11.966Z,20.17
2019-04-05T09:04:16.025Z,19.35
2019-04-05T09:05:20.427Z,18.80
2019-04-05T09:06:24.620Z,18.15
2019-04-05T09:07:28.801Z,19.45
2019-04-05T09:08:34.685Z,17.57
2019-04-05T09:09:38.985Z,17.35
2019-04-05T09:10:43.187Z,18.77
2019-04-05T09:11:47.434Z,17.67
2019-04-05T09:12:51.682Z,19.73
2019-04-05T09:13:56.606Z,20.48
2019-04-05T09:15:00.859Z,18.32
2019-04-05T09:16:05.077Z,19.82
2019-04-05T09:17:09.271Z,18.00
2019-04-05T09:18:13.704Z,18.13
2019-04-05T09:19:23.934Z,17.60
2019-04-05T09:20:23.890Z,17.80
2019-04-05T09:21:29.674Z,15.00
2019-04-05T09:22:34.190Z,17.85
2019-04-05T09:23:38.362Z,18.73
2019-04-05T09:24:42.608Z,16.37
2019-04-05T09:25:47.144Z,16.85
2019-04-05T09:26:54.145Z,17.65
2019-04-05T09:27:57.260Z,21.33
2019-04-05T09:29:01.519Z,17.70
2019-04-05T09:30:07.146Z,24.30
2019-04-05T09:31:11.360Z,24.43
2019-04-05T09:32:15.617Z,19.87
2019-04-05T09:33:20.002Z,17.47
2019-04-05T09:34:24.178Z,17.45
2019-04-05T09:35:28.371Z,17.42
2019-04-05T09:36:32.687Z,17.40
2019-04-05T09:37:36.865Z,16.65
2019-04-05T09:38:41.110Z,18.65
2019-04-05T09:39:45.584Z,18.02
2019-04-05T09:40:49.924Z,17.70
2019-04-05T09:41:54.429Z,17.57
2019-04-05T09:42:58.602Z,18.70
2019-04-05T09:44:02.993Z,18.87
2019-04-05T09:45:07.285Z,20.40
2019-04-05T09:46:11.461Z,18.57
2019-04-05T09:47:15.782Z,21.93
2019-04-05T09:48:20.030Z,18.37
2019-04-05T09:49:36.221Z,18.05
2019-04-05T09:50:30.445Z,20.68
2019-04-05T09:51:34.802Z,20.72
2019-04-05T09:52:40.196Z,21.07
2019-04-05T09:53:44.483Z,20.00
2019-04-05T09:54:49.146Z,21.12
2019-04-05T09:55:53.469Z,19.73
2019-04-05T09:56:57.854Z,17.52
2019-04-05T09:58:02.354Z,17.90
2019-04-05T09:59:06.533Z,19.40
2019-04-05T10:00:16.255Z,18.60
2019-04-05T10:01:21.232Z,17.60
2019-04-05T10:02:25.479Z,19.63
2019-04-05T10:03:29.692Z,21.48
2019-04-05T10:04:33.865Z,21.57
2019-04-05T10:05:39.083Z,22.62
2019-04-05T10:06:43.289Z,20.45
2019-04-05T10:07:54.704Z,18.30
2019-04-05T10:08:53.648Z,21.90
2019-04-05T10:09:58.785Z,21.73
2019-04-05T10:11:02.968Z,21.25
2019-04-05T10:12:07.256Z,23.47
2019-04-05T10:13:11.498Z,20.73
2019-04-05T10:14:15.680Z,22.30
2019-04-05T10:15:21.708Z,22.13
2019-04-05T10:16:25.933Z,21.90
2019-04-05T10:17:30.285Z,22.80
2019-04-05T10:18:34.507Z,22.58
2019-04-05T10:19:49.141Z,20.97
2019-04-05T10:20:44.699Z,24.23
2019-04-05T10:21:48.870Z,21.68
2019-04-05T10:22:53.215Z,20.25
2019-04-05T10:23:57.387Z,21.42
2019-04-05T10:25:01.766Z,21.65
2019-04-05T10:26:05.903Z,22.25
2019-04-05T10:27:10.081Z,22.03
2019-04-05T10:28:14.310Z,21.87
2019-04-05T10:29:18.530Z,21.10
2019-04-05T10:30:22.845Z,22.77
2019-04-05T10:31:27.096Z,24.02
2019-04-05T10:32:31.561Z,21.40
2019-04-05T10:33:35.767Z,23.27
2019-04-05T10:34:40.088Z,25.35
2019-04-05T10:35:47.131Z,22.45
2019-04-05T10:36:50.457Z,19.85
2019-04-05T10:37:54.949Z,23.42
2019-04-05T10:39:01.187Z,20.50
2019-04-05T10:40:06.997Z,20.80
2019-04-05T10:41:11.169Z,22.73
2019-04-05T10:42:17.513Z,21.37
2019-04-05T10:43:21.692Z,21.27
2019-04-05T10:44:26.029Z,21.52
2019-04-05T10:45:30.273Z,23.85
2019-04-05T10:46:34.681Z,24.02
2019-04-05T10:47:38.851Z,20.57
2019-04-05T10:48:43.122Z,21.12
2019-04-05T10:49:47.369Z,20.08
2019-04-05T10:50:51.550Z,21.12
2019-04-05T10:51:55.722Z,22.25
2019-04-05T10:52:59.969Z,20.95
2019-04-05T10:54:04.343Z,22.87
2019-04-05T10:55:08.589Z,20.00
2019-04-05T10:56:12.768Z,20.70
2019-04-05T10:57:17.062Z,23.60
2019-04-05T10:58:21.355Z,22.40
2019-04-05T10:59:25.844Z,22.58
2019-04-05T11:00:31.037Z,23.15
2019-04-05T11:01:35.209Z,24.47
2019-04-05T11:02:40.175Z,24.30
2019-04-05T11:03:46.151Z,25.88
2019-04-05T11:04:50.444Z,27.07
2019-04-05T11:05:54.617Z,24.92
2019-04-05T11:06:58.860Z,25.12
2019-04-05T11:08:03.085Z,25.52
2019-04-05T11:09:07.804Z,25.82
2019-04-05T11:10:12.281Z,26.37
2019-04-05T11:11:16.499Z,26.80
2019-04-05T11:12:20.972Z,22.57
2019-04-05T11:13:25.114Z,25.15
2019-04-05T11:14:29.551Z,24.52
2019-04-05T11:15:33.791Z,25.60
2019-04-05T11:16:38.417Z,24.27
2019-04-05T11:17:42.717Z,24.45
2019-04-05T11:18:47.863Z,23.95
2019-04-05T11:19:52.042Z,22.00
2019-04-05T11:20:56.217Z,22.48
2019-04-05T11:22:00.638Z,21.30
2019-04-05T11:23:05.066Z,24.02
2019-04-05T11:24:09.325Z,21.82
2019-04-05T11:25:14.948Z,21.55
2019-04-05T11:26:19.128Z,21.10
2019-04-05T11:27:23.413Z,25.77
2019-04-05T11:28:27.754Z,23.55
2019-04-05T11:29:31.938Z,23.10
2019-04-05T11:30:44.121Z,23.12
2019-04-05T11:31:56.818Z,24.72
2019-04-05T11:32:55.037Z,22.67
2019-04-05T11:33:59.463Z,25.53
2019-04-05T11:35:08.975Z,25.08
2019-04-05T11:36:13.710Z,25.80
2019-04-05T11:37:19.161Z,27.23
2019-04-05T11:38:24.535Z,27.50
2019-04-05T11:39:29.008Z,24.87
2019-04-05T11:40:33.444Z,24.55
2019-04-05T11:41:37.866Z,27.90
2019-04-05T11:42:42.038Z,26.73
2019-04-05T11:43:46.710Z,25.60
2019-04-05T11:44:51.641Z,27.55
2019-04-05T11:45:57.354Z,25.95
2019-04-05T11:47:01.525Z,23.60
2019-04-05T11:48:05.778Z,26.12
2019-04-05T11:49:10.032Z,28.05
2019-04-05T11:50:14.208Z,26.97
2019-04-05T11:51:18.463Z,26.03
2019-04-05T11:52:22.689Z,28.35
2019-04-05T11:53:28.641Z,30.05
2019-04-05T11:54:32.861Z,27.17
2019-04-05T11:55:37.102Z,27.65
2019-04-05T11:56:41.316Z,28.55
2019-04-05T11:57:45.565Z,30.30
2019-04-05T11:58:50.075Z,29.80
2019-04-05T11:59:54.296Z,33.05
2019-04-05T12:01:06.029Z,30.08
2019-04-05T12:02:20.985Z,29.53
2019-04-05T12:03:32.521Z,28.95
2019-04-05T12:04:36.694Z,29.15
2019-04-05T12:05:40.995Z,31.25
2019-04-05T12:06:46.140Z,27.95
2019-04-05T12:07:51.959Z,28.47
2019-04-05T12:08:56.447Z,30.68
2019-04-05T12:10:00.696Z,32.28
2019-04-05T12:11:05.253Z,33.53
2019-04-05T12:12:09.432Z,29.05
2019-04-05T12:13:13.755Z,28.52
2019-04-05T12:14:29.543Z,29.43
2019-04-05T12:15:23.846Z,28.17
2019-04-05T12:16:28.498Z,25.70
2019-04-05T12:17:35.054Z,29.32
2019-04-05T12:18:38.552Z,29.18
2019-04-05T12:19:42.938Z,28.92
2019-04-05T12:20:52.304Z,27.55
2019-04-05T12:21:53.024Z,28.45
2019-04-05T12:22:57.240Z,27.67
2019-04-05T12:24:02.564Z,27.60
2019-04-05T12:25:07.505Z,29.82
2019-04-05T12:26:11.739Z,27.70
2019-04-05T12:27:16.208Z,30.05
2019-04-05T12:28:20.397Z,29.17
2019-04-05T12:29:24.578Z,28.73
2019-04-05T12:30:30.446Z,27.52
2019-04-05T12:31:34.713Z,31.80
2019-04-05T12:32:41.614Z,29.57
2019-04-05T12:33:46.856Z,26.80
2019-04-05T12:34:51.706Z,24.95
2019-04-05T12:35:56.947Z,27.07
2019-04-05T12:37:02.175Z,23.18
2019-04-05T12:38:07.142Z,26.60
2019-04-05T12:39:11.415Z,28.37
2019-04-05T12:40:15.665Z,24.90
2019-04-05T12:41:19.841Z,24.73
2019-04-05T12:42:24.014Z,24.43
2019-04-05T12:43:28.444Z,24.50
2019-04-05T12:44:32.622Z,27.10
2019-04-05T12:45:36.966Z,24.40
2019-04-05T12:46:41.209Z,24.90
2019-04-05T12:47:46.098Z,23.27
2019-04-05T12:48:50.455Z,26.07
2019-04-05T12:49:54.669Z,24.30
2019-04-05T12:51:01.360Z,26.33
2019-04-05T12:52:04.798Z,25.25
2019-04-05T12:53:08.991Z,25.85
2019-04-05T12:54:13.318Z,26.13
2019-04-05T12:55:17.490Z,27.10
2019-04-05T12:56:21.735Z,23.42
2019-04-05T12:57:27.876Z,30.50
2019-04-05T12:58:32.883Z,26.02
2019-04-05T12:59:37.558Z,28.60
2019-04-05T13:00:41.750Z,24.98
2019-04-05T13:01:46.523Z,27.07
2019-04-05T13:02:50.992Z,24.18
2019-04-05T13:03:55.271Z,25.52
2019-04-05T13:04:59.499Z,26.40
2019-04-05T13:06:04.824Z,25.80
2019-04-05T13:07:09.010Z,25.50
2019-04-05T13:08:14.802Z,27.43
2019-04-05T13:09:21.398Z,26.13
2019-04-05T13:10:30.490Z,26.02
2019-04-05T13:11:35.927Z,24.85
2019-04-05T13:12:43.166Z,26.55
2019-04-05T13:13:47.376Z,25.60
2019-04-05T13:14:53.416Z,23.42
2019-04-05T13:15:59.534Z,24.65
2019-04-05T13:17:05.015Z,22.92
2019-04-05T13:18:09.220Z,25.00
2019-04-05T13:19:13.390Z,24.33
2019-04-05T13:20:19.240Z,23.03
2019-04-05T13:21:27.361Z,24.47
2019-04-05T13:22:33.017Z,25.40
2019-04-05T13:23:37.001Z,24.87
2019-04-05T13:24:41.248Z,25.40
2019-04-05T13:25:48.736Z,23.75
2019-04-05T13:26:52.160Z,22.52
2019-04-05T13:27:56.415Z,22.98
2019-04-05T13:29:01.741Z,26.17
2019-04-05T13:30:07.534Z,25.12
2019-04-05T13:31:14.426Z,27.03
2019-04-05T13:32:21.535Z,29.40
2019-04-05T13:33:24.706Z,24.75
2019-04-05T13:34:28.933Z,24.47
2019-04-05T13:35:33.112Z,25.40
2019-04-05T13:36:37.300Z,26.25
2019-04-05T13:37:43.164Z,26.57
2019-04-05T13:38:54.784Z,25.77
2019-04-05T13:39:53.208Z,27.25
2019-04-05T13:41:01.231Z,25.15
2019-04-05T13:42:03.415Z,24.20
2019-04-05T13:43:08.367Z,24.60
2019-04-05T13:44:12.615Z,25.33
2019-04-05T13:45:17.860Z,26.60
2019-04-05T13:46:25.718Z,22.47
2019-04-05T13:47:28.231Z,22.87
2019-04-05T13:48:32.674Z,22.85
2019-04-05T13:49:38.590Z,22.82
2019-04-05T13:50:42.740Z,24.00
2019-04-05T13:51:46.920Z,21.87
2019-04-05T13:52:51.171Z,23.77
2019-04-05T13:53:56.673Z,22.00
2019-04-05T13:55:01.165Z,25.60
2019-04-05T13:56:06.466Z,22.87
2019-04-05T13:57:11.509Z,24.60